Wetterdaten: Sonntag, 07.06.2015
Datum Zeit Temp. A. Feuchte A. Luftdruck Regen Wind Richtung Richtung Sonnenschein ET UV Solar Taupunkt Windchill Windben Empfang
07.06.2015 00:00 19,5 C 70 % 1020,6 hPa 0,0 l/m 0,0 km/h (0 Bft) S 180 0 min 0,000 mm 0,0 UV-I 0 W/m 13,9 C 19,5 C 0,0 km/h (0 Bft) 0,00 %
07.06.2015 01:00 18,3 C 74 % 1021,2 hPa 0,0 l/m 0,0 km/h (0 Bft) SW 220 0 min 0,000 mm 0,0 UV-I 0 W/m 13,6 C 18,3 C 0,0 km/h (0 Bft) 0,00 %
07.06.2015 02:00 20,0 C 64 % 1021,7 hPa 0,0 l/m 0,0 km/h (0 Bft) O-SO 120 0 min 0,000 mm 0,0 UV-I 0 W/m 13,0 C 20,0 C 0,0 km/h (0 Bft) 0,00 %
07.06.2015 03:00 19,1 C 65 % 1021,4 hPa 0,0 l/m 0,0 km/h (0 Bft) O-SO 110 0 min 0,000 mm 0,0 UV-I 0 W/m 12,4 C 19,1 C 0,0 km/h (0 Bft) 0,00 %
07.06.2015 04:00 17,8 C 72 % 1021,3 hPa 0,0 l/m 0,0 km/h (0 Bft) O-NO 60 0 min 0,000 mm 0,0 UV-I 0 W/m 12,7 C 17,8 C 0,0 km/h (0 Bft) 0,00 %
07.06.2015 05:00 16,9 C 76 % 1022,2 hPa 0,0 l/m 0,0 km/h (0 Bft) O 100 0 min 0,000 mm 0,0 UV-I 0 W/m 12,6 C 16,9 C 0,0 km/h (0 Bft) 0,00 %
07.06.2015 06:00 16,9 C 76 % 1021,5 hPa 0,0 l/m 0,0 km/h (0 Bft) O-SO 120 60 min 0,000 mm 0,0 UV-I 86 W/m 12,6 C 16,9 C 0,0 km/h (0 Bft) 0,00 %
07.06.2015 07:00 20,6 C 62 % 1021,7 hPa 0,0 l/m 0,0 km/h (0 Bft) S-SW 210 60 min 0,000 mm 1,0 UV-I 371 W/m 13,1 C 20,6 C 0,0 km/h (0 Bft) 0,00 %
07.06.2015 08:00 21,7 C 62 % 1022,0 hPa 0,0 l/m 7,0 km/h (2 Bft) SO 130 60 min 0,000 mm 2,0 UV-I 492 W/m 14,1 C 21,5 C 7,9 km/h (2 Bft) 0,00 %
07.06.2015 09:00 23,5 C 55 % 1021,3 hPa 0,0 l/m 0,0 km/h (0 Bft) S-SW 200 60 min 0,000 mm 2,0 UV-I 552 W/m 13,9 C 23,5 C 0,0 km/h (0 Bft) 0,00 %
07.06.2015 10:00 25,0 C 49 % 1020,3 hPa 0,0 l/m 4,0 km/h (1 Bft) W-NW 300 60 min 0,000 mm 3,0 UV-I 662 W/m 13,5 C 25,0 C 7,9 km/h (2 Bft) 0,00 %
07.06.2015 11:00 28,3 C 43 % 1019,9 hPa 0,0 l/m 1,8 km/h (1 Bft) W-NW 290 60 min 0,000 mm 4,0 UV-I 775 W/m 14,5 C 28,3 C 4,0 km/h (1 Bft) 0,00 %
07.06.2015 12:00 27,7 C 44 % 1019,6 hPa 0,0 l/m 0,0 km/h (0 Bft) S 180 60 min 0,000 mm 5,0 UV-I 836 W/m 14,3 C 27,7 C 0,0 km/h (0 Bft) 0,00 %
07.06.2015 13:00 28,3 C 42 % 1018,8 hPa 0,0 l/m 2,1 km/h (1 Bft) O 90 60 min 0,000 mm 6,0 UV-I 889 W/m 14,1 C 28,3 C 4,0 km/h (1 Bft) 0,00 %
07.06.2015 14:00 27,8 C 43 % 1018,2 hPa 0,0 l/m 1,8 km/h (1 Bft) W-NW 300 60 min 0,000 mm 5,0 UV-I 919 W/m 14,1 C 27,8 C 4,0 km/h (1 Bft) 0,00 %
07.06.2015 15:00 29,6 C 36 % 1017,3 hPa 0,0 l/m 5,8 km/h (2 Bft) O-SO 120 60 min 0,000 mm 5,0 UV-I 960 W/m 12,9 C 29,6 C 7,9 km/h (2 Bft) 0,00 %
07.06.2015 16:00 30,5 C 38 % 1016,4 hPa 0,0 l/m 0,0 km/h (0 Bft) O-SO 110 60 min 0,000 mm 4,0 UV-I 971 W/m 14,5 C 30,5 C 0,0 km/h (0 Bft) 0,00 %
07.06.2015 17:00 30,8 C 32 % 1016,4 hPa 0,0 l/m 5,8 km/h (2 Bft) NO 50 60 min 0,000 mm 2,0 UV-I 839 W/m 12,2 C 30,8 C 7,9 km/h (2 Bft) 0,00 %
07.06.2015 18:00 26,3 C 49 % 1017,0 hPa 0,0 l/m 2,9 km/h (1 Bft) NO 50 60 min 0,000 mm 1,0 UV-I 736 W/m 14,7 C 26,3 C 4,0 km/h (1 Bft) 0,00 %
07.06.2015 19:00 28,6 C 45 % 1016,0 hPa 0,0 l/m 4,0 km/h (1 Bft) S-SW 210 60 min 0,000 mm 1,0 UV-I 314 W/m 15,5 C 28,6 C 11,9 km/h (2 Bft) 0,00 %
07.06.2015 20:00 24,0 C 56 % 1017,0 hPa 0,0 l/m 0,0 km/h (0 Bft) O-SO 120 0 min 0,000 mm 0,0 UV-I 7 W/m 14,7 C 24,0 C 0,0 km/h (0 Bft) 0,00 %
07.06.2015 21:00 23,2 C 64 % 1017,5 hPa 0,0 l/m 0,0 km/h (0 Bft) SW 230 0 min 0,000 mm 0,0 UV-I 0 W/m 16,0 C 23,2 C 0,0 km/h (0 Bft) 0,00 %
07.06.2015 22:00 21,9 C 68 % 1017,3 hPa 0,0 l/m 0,0 km/h (0 Bft) O-NO 60 0 min 0,000 mm 0,0 UV-I 0 W/m 15,7 C 21,9 C 0,0 km/h (0 Bft) 0,00 %
07.06.2015 23:00 20,7 C 72 % 1017,8 hPa 0,0 l/m 0,0 km/h (0 Bft) O-NO 60 0 min 0,000 mm 0,0 UV-I 0 W/m 15,5 C 20,7 C 0,0 km/h (0 Bft) 0,00 %
_ Min-Zeit 05:00 17:00 19:00 - 00:00 - - - - - - 17:00 05:00 00:00 00:00
Minimum _ 16,9 C 32 % 1016,0 hPa - 0,0 km/h (0 Bft) - - - - - - 12,2 C 16,9 C 0,0 km/h (0 Bft) 0,00 %
_ Max-Zeit 17:00 05:00 05:00 00:00 08:00 - - 06:00 00:00 13:00 16:00 21:00 17:00 19:00 00:00
Maximum _ 30,8 C 76 % 1022,2 hPa 0,0 l/m 7,0 km/h
SO (2 Bft)
- - 60 min 0,000 mm 6,0 UV-I 971 W/m 16,0 C 30,8 C 11,9 km/h
S-SW (2 Bft)
0,00 %
Durchschnitt _ 23,8 C 56 % 1019,3 hPa #0,0 l/m 1,5 km/h (1 Bft) W-NW - #14:00 h #0,000 mm 3,2 UV-I 627 W/m 13,9 C 23,8 C 2,6 km/h (1 Bft) 0,00 %